Terminal Aerodrome Forecast
Issued by NWS Jackson, KY

Home | Current Version | Previous Version | Text Only | Print | Product List | Glossary On
Versions: 1 2 3 4 5 6 7 8 9 10 11 12 13 14 15 16
730
FTUS43 KJKL 280542
TAFLOZ
TAF
KLOZ 280542Z 2806/2906 VRB03KT P6SM SKC
     FM281700 23009G17KT P6SM VCSH SCT200
     FM290000 32005KT P6SM VCSH BKN050
     FM290100 30004KT P6SM VCSH OVC025
     FM290200 28003KT 2SM BR VCSH OVC015
     FM290400 26002KT 2SM BR VCSH OVC007=

USA.gov is the U.S. government's official web portal to all federal, state and local government web resources and services.